Crystal Serenity — C6SY3 — position and weather

sailwx.info

Track history (hours):
 
Tides and Currents Weather Stations Pressure Air Temp Water Temp Dewpoint Dewpoint Depression Visibility Wind Speed Wind Dir Waves Ship Positions

Crystal Serenity

Operator: Crystal Cruises

Last reported at 2018-Dec-12 12:23 UTC. Time now 2018-Dec-12 14:18 UTC.
Position N 32°06' W 117°17'.

Length 250 m; draft 7.5 m.

Type: Passenger vessel. MMSI: 311536000.

Date/timePositionNaut miles runAvg speedWind from/ knotsBaromVisibWave heightAir tempDewpointWater temp
2018-Dec-12 12:23N 32°06' W 117°17'614.8
2018-Dec-12 12:00N 32°10' W 117°21'113240.7
2018-Dec-12 12:00N 32°18' W 117°30'2 3.9 350 / 91023.310.8 16.014.218.0
2018-Dec-12 11:25N 32°16' W 117°28'614.6
2018-Dec-12 11:00N 32°21' W 117°33'714.6
2018-Dec-12 10:31N 32°26' W 117°39'714.6
2018-Dec-12 10:00N 32°31' W 117°45'714.6
2018-Dec-12 09:31N 32°36' W 117°51'714.6
2018-Dec-12 09:00N 32°41' W 117°58'714.9
2018-Dec-12 08:30N 32°46' W 118°04'714.9
2018-Dec-12 08:00N 32°52' W 118°10'816.8
2018-Dec-12 07:30N 32°57' W 118°18'918.5
2018-Dec-12 07:00N 33°04' W 118°25'918.0
2018-Dec-12 06:31N 33°11' W 118°33'918.3
2018-Dec-12 06:00N 33°17' W 118°40'918.3
2018-Dec-12 05:31N 33°25' W 118°45'918.7
2018-Dec-12 05:00N 33°33' W 118°51'918.3
2018-Dec-12 04:31N 33°41' W 118°57'918.2
2018-Dec-12 04:00N 33°49' W 119°03'3175.4
2018-Dec-12 04:00N 33°48' W 119°06'919.1 350 / 121021.210.8 17.0 17.0
2018-Dec-12 03:30N 33°57' W 119°09'918.3
2018-Dec-12 03:00N 34°03' W 119°17'918.4
2018-Dec-12 02:30N 34°05' W 119°28'918.8
2018-Dec-12 02:01N 34°08' W 119°39'917.8
2018-Dec-12 01:31N 34°17' W 119°40'713.9
2018-Dec-12 01:00N 34°24' W 119°40'0 0.2
2018-Dec-12 00:28N 34°24' W 119°40'0 0.0
2018-Dec-11 23:58N 34°24' W 119°40'0 0.0
2018-Dec-11 23:28N 34°24' W 119°40'0 0.0
2018-Dec-11 22:58N 34°24' W 119°40'0 0.0
2018-Dec-11 22:28N 34°24' W 119°40'0 0.0
2018-Dec-11 21:52N 34°24' W 119°40'0 0.0
2018-Dec-11 20:40N 34°24' W 119°40'0 0.2
2018-Dec-11 20:25N 34°24' W 119°40'0 0.1
2018-Dec-11 19:58N 34°24' W 119°40'0 0.1
2018-Dec-11 19:13N 34°24' W 119°40'0 0.0
2018-Dec-11 18:31N 34°24' W 119°40'0 0.0
2018-Dec-11 18:07N 34°24' W 119°40'0 0.0
2018-Dec-11 17:43N 34°24' W 119°40'0 0.0
2018-Dec-11 16:28N 34°24' W 119°40'0 0.1
2018-Dec-11 15:49N 34°24' W 119°40'0 0.1
2018-Dec-11 15:10N 34°24' W 119°40'1 4.0
2018-Dec-11 14:50N 34°22' W 119°40'5 9.7
2018-Dec-11 14:19N 34°18' W 119°44'410.7
2018-Dec-11 13:59N 34°15' W 119°46'5 9.8
2018-Dec-11 13:30N 34°11' W 119°49'510.5
2018-Dec-11 12:58N 34°12' W 119°56'5 9.8
2018-Dec-11 12:30N 34°13' W 120°01'4 7.6
2018-Dec-11 12:00N 34°12' W 120°06'2737.8 350 / 181021.310.8 15.011.316.0
2018-Dec-11 11:59N 34°14' W 120°07'5 9.8
2018-Dec-11 11:30N 34°15' W 120°13'510.2
2018-Dec-11 11:00N 34°17' W 120°19'510.0
2018-Dec-11 10:30N 34°18' W 120°24'5 9.8
2018-Dec-11 10:00N 34°19' W 120°30'5 9.7
2018-Dec-11 09:29N 34°20' W 120°36'510.0
2018-Dec-11 09:00N 34°22' W 120°42'5 9.8
2018-Dec-11 08:30N 34°23' W 120°47'5 9.6
2018-Dec-11 08:00N 34°24' W 120°53'5 9.4
2018-Dec-11 07:30N 34°28' W 120°56'5 9.8
2018-Dec-11 07:00N 34°32' W 120°59'4461.2
2018-Dec-11 07:00N 34°36' W 121°00'2 4.2 360 / 141024.3 14.0 16.0
2018-Dec-11 06:30N 34°37' W 121°02'5 9.5
2018-Dec-11 06:01N 34°41' W 121°05'5 9.4
2018-Dec-11 05:31N 34°45' W 121°08'5 9.4
2018-Dec-11 05:00N 34°49' W 121°12'5 9.4
2018-Dec-11 04:30N 34°52' W 121°15'5 9.2
2018-Dec-11 04:00N 34°56' W 121°18'5493.6
2018-Dec-11 04:00N 34°54' W 121°12'1020.0 360 / 131024.310.8 14.0 16.0
2018-Dec-11 03:30N 35°00' W 121°21'5 9.5
2018-Dec-11 03:00N 35°04' W 121°24'5 9.3
2018-Dec-11 02:30N 35°08' W 121°27'5 9.3
2018-Dec-11 02:00N 35°12' W 121°30'5 9.1
2018-Dec-11 01:30N 35°16' W 121°33'5 9.1
2018-Dec-11 01:00N 35°20' W 121°36'5 9.1
2018-Dec-11 00:30N 35°23' W 121°40'22 8.8
2018-Dec-10 22:00N 35°42' W 121°54'13 6.5 320 / 121024.310.8 16.012.415.0
2018-Dec-10 20:00N 35°54' W 122°00'59 9.9 350 / 181025.310.8 15.0 16.0
2018-Dec-10 14:00N 36°48' W 122°30'751.6 340 / 151023.010.8 14.0 16.0
2018-Dec-10 13:51N 36°53' W 122°36'3 9.6
2018-Dec-10 13:30N 36°57' W 122°37'5 9.6
2018-Dec-10 13:00N 37°01' W 122°39'5 9.5
2018-Dec-10 12:30N 37°06' W 122°41'5 9.6
2018-Dec-10 12:00N 37°10' W 122°43'4306.3
2018-Dec-10 12:00N 37°06' W 122°42'918.2 340 / 111029.310.8 14.012.215.0
2018-Dec-10 11:30N 37°15' W 122°43'5 9.5
2018-Dec-10 11:00N 37°20' W 122°43'5 9.4
2018-Dec-10 10:30N 37°24' W 122°44'5 9.6
2018-Dec-10 10:00N 37°29' W 122°43'5 9.5
2018-Dec-10 09:30N 37°34' W 122°44'5 9.4
2018-Dec-10 09:00N 37°38' W 122°43'4 9.0
2018-Dec-10 08:30N 37°43' W 122°42'510.2
2018-Dec-10 08:00N 37°46' W 122°37'715.0
2018-Dec-10 07:31N 37°49' W 122°28'3 6.6
2018-Dec-10 06:59N 37°48' W 122°24'0 0.0
2018-Dec-10 06:29N 37°48' W 122°24'0 0.6
2018-Dec-10 06:00N 37°48' W 122°24'0124.8 1026.0 9.0 16.0
2018-Dec-10 05:59N 37°48' W 122°24'0 0.0
2018-Dec-10 05:29N 37°48' W 122°24'0 0.0
2018-Dec-10 04:59N 37°48' W 122°24'0 0.0
2018-Dec-10 04:29N 37°48' W 122°24'0 0.0
2018-Dec-10 03:59N 37°48' W 122°24'0 0.0
2018-Dec-10 03:29N 37°48' W 122°24'0 0.0
2018-Dec-10 02:29N 37°48' W 122°24'0 0.0
2018-Dec-10 01:59N 37°48' W 122°24'0 0.0
2018-Dec-10 01:29N 37°48' W 122°24'0 0.0
2018-Dec-10 00:59N 37°48' W 122°24'0 0.0
2018-Dec-10 00:29N 37°48' W 122°24'0 0.0
2018-Dec-09 23:59N 37°48' W 122°24'0 0.0
2018-Dec-09 23:29N 37°48' W 122°24'0 0.0
2018-Dec-09 22:59N 37°48' W 122°24'0 0.0
2018-Dec-09 22:29N 37°48' W 122°24'0 0.0
2018-Dec-09 21:59N 37°48' W 122°24'0 0.0
2018-Dec-09 21:29N 37°48' W 122°24'0 0.6
2018-Dec-09 21:00N 37°48' W 122°24'0160.5 1027.0 10.0 16.0
2018-Dec-09 20:59N 37°48' W 122°24'0 0.0
2018-Dec-09 20:29N 37°48' W 122°24'0 0.0
2018-Dec-09 19:59N 37°48' W 122°24'0 0.0
2018-Dec-09 19:29N 37°48' W 122°24'0 0.0
2018-Dec-09 18:59N 37°48' W 122°24'0 0.0
2018-Dec-09 18:29N 37°48' W 122°24'0 0.0
2018-Dec-09 17:59N 37°48' W 122°24'0 0.0
2018-Dec-09 17:29N 37°48' W 122°24'0 0.0
2018-Dec-09 16:59N 37°48' W 122°24'0 0.0
2018-Dec-09 16:29N 37°48' W 122°24'0 0.0
2018-Dec-09 15:59N 37°48' W 122°24'0 0.0
2018-Dec-09 15:29N 37°48' W 122°24'0 0.0
2018-Dec-09 14:59N 37°48' W 122°24'0 0.0
2018-Dec-09 14:29N 37°48' W 122°24'0 0.0
2018-Dec-09 13:59N 37°48' W 122°24'0 0.0
2018-Dec-09 13:29N 37°48' W 122°24'0 0.0
2018-Dec-09 12:59N 37°48' W 122°24'0 0.0
2018-Dec-09 12:29N 37°48' W 122°24'0 0.0
2018-Dec-09 11:59N 37°48' W 122°24'0 0.0
2018-Dec-09 11:29N 37°48' W 122°24'0 0.0
2018-Dec-09 10:59N 37°48' W 122°24'0 0.0
2018-Dec-09 10:29N 37°48' W 122°24'0 0.0
2018-Dec-09 09:59N 37°48' W 122°24'0 0.0
2018-Dec-09 09:29N 37°48' W 122°24'0 0.0
2018-Dec-09 08:59N 37°48' W 122°24'0 0.0
2018-Dec-09 08:29N 37°48' W 122°24'0 0.0
2018-Dec-09 07:59N 37°48' W 122°24'0 0.0
2018-Dec-09 07:29N 37°48' W 122°24'0 0.6
2018-Dec-09 07:00N 37°48' W 122°24'0160.5 1025.0 12.0 16.0
2018-Dec-09 06:59N 37°48' W 122°24'0 0.0
2018-Dec-09 06:29N 37°48' W 122°24'0 0.0
2018-Dec-09 05:59N 37°48' W 122°24'0 0.0
2018-Dec-09 05:29N 37°48' W 122°24'0 0.0
2018-Dec-09 04:59N 37°48' W 122°24'0 0.0
2018-Dec-09 04:29N 37°48' W 122°24'0 0.6
2018-Dec-09 04:00N 37°48' W 122°24'0122.4 1025.0 14.0 16.0
2018-Dec-09 03:59N 37°48' W 122°24'0 0.0
2018-Dec-09 03:29N 37°48' W 122°24'0 0.0
2018-Dec-09 02:59N 37°48' W 122°24'0 0.0
2018-Dec-09 02:29N 37°48' W 122°24'0 0.0
2018-Dec-09 01:59N 37°48' W 122°24'0 0.0
2018-Dec-09 01:29N 37°48' W 122°24'0 0.0
2018-Dec-09 00:59N 37°48' W 122°24'0 0.0
2018-Dec-09 00:29N 37°48' W 122°24'0 0.0
2018-Dec-08 23:59N 37°48' W 122°24'0 0.2
2018-Dec-08 23:31N 37°48' W 122°24'3 5.9
2018-Dec-08 23:00N 37°49' W 122°28'612.2
2018-Dec-08 22:31N 37°47' W 122°35'612.5
2018-Dec-08 22:00N 37°44' W 122°42'713.8
2018-Dec-08 21:30N 37°38' W 122°40'714.2
2018-Dec-08 21:00N 37°30' W 122°39'917.8
2018-Dec-08 20:30N 37°21' W 122°39'918.9
2018-Dec-08 20:00N 37°12' W 122°39'918.9
2018-Dec-08 19:30N 37°03' W 122°36'2344.7
2018-Dec-08 19:00N 36°42' W 122°24'1347921.8 1030.310.8 13.0 16.0
2018-Dec-08 18:59N 36°54' W 122°31'1018.8
2018-Dec-08 18:27N 36°45' W 122°27'4920.1
2018-Dec-08 16:00N 36°00' W 122°00'4120.5 310 / 271014.010.8 15.0 16.0
2018-Dec-08 14:00N 35°24' W 121°36'811.6 300 / 301014.0 5.4 14.0 16.0
2018-Dec-08 13:18N 35°18' W 121°29'619.0
2018-Dec-08 13:00N 35°13' W 121°26'918.5
2018-Dec-08 12:30N 35°05' W 121°20'917.9
2018-Dec-08 12:01N 34°58' W 121°15'4252.7
2018-Dec-08 12:00N 34°54' W 121°12'5 9.6 350 / 201028.310.8 15.0 9.116.0
2018-Dec-08 11:30N 34°50' W 121°09'918.1
2018-Dec-08 11:01N 34°43' W 121°03'918.6
2018-Dec-08 10:30N 34°34' W 120°57'918.7
2018-Dec-08 10:00N 34°26' W 120°51'918.3
2018-Dec-08 09:30N 34°24' W 120°41'919.0
2018-Dec-08 09:00N 34°21' W 120°30'1019.2
2018-Dec-08 08:30N 34°19' W 120°18'1018.8
2018-Dec-08 07:59N 34°16' W 120°07'918.7
2018-Dec-08 07:30N 34°14' W 119°57'918.6
2018-Dec-08 07:00N 34°12' W 119°46'2118.6
2018-Dec-08 07:00N 34°12' W 119°48'1123.6 1027.310.8 14.0 16.0
2018-Dec-08 06:30N 34°09' W 119°35'1019.2
2018-Dec-08 06:00N 34°06' W 119°23'1018.8
2018-Dec-08 05:29N 34°03' W 119°12'918.3
2018-Dec-08 05:00N 33°58' W 119°03'1018.6
2018-Dec-08 04:30N 33°54' W 118°53'918.5
2018-Dec-08 04:00N 33°49' W 118°44'4281.1
2018-Dec-08 04:00N 33°48' W 118°48'1019.9 340 / 121025.310.8 17.0 17.0
2018-Dec-08 03:30N 33°46' W 118°37'612.8
2018-Dec-08 03:00N 33°43' W 118°30'612.5
2018-Dec-08 02:30N 33°40' W 118°23'510.7
2018-Dec-08 02:00N 33°39' W 118°17'4 8.4
2018-Dec-08 01:31N 33°43' W 118°16'2 3.1
2018-Dec-08 00:59N 33°45' W 118°17'0 0.0
2018-Dec-08 00:29N 33°45' W 118°17'0 0.0
2018-Dec-07 23:53N 33°45' W 118°17'0 0.0
2018-Dec-07 23:28N 33°45' W 118°17'0 0.0
2018-Dec-07 22:59N 33°45' W 118°17'0 0.0
2018-Dec-07 22:23N 33°45' W 118°17'0 0.0
2018-Dec-07 21:59N 33°45' W 118°17'0 0.0
2018-Dec-07 21:29N 33°45' W 118°17'0 0.0
2018-Dec-07 20:59N 33°45' W 118°17'0 0.0
2018-Dec-07 20:29N 33°45' W 118°17'510.0
2018-Dec-07 20:00N 33°42' W 118°12'5288.8 010 / 61022.2 21.0 21.0
2018-Dec-07 19:59N 33°45' W 118°17'0 0.0
2018-Dec-07 19:29N 33°45' W 118°17'0 0.0
2018-Dec-07 18:59N 33°45' W 118°17'0 0.0
2018-Dec-07 18:29N 33°45' W 118°17'0 0.0
2018-Dec-07 17:59N 33°45' W 118°17'0 0.0
2018-Dec-07 17:29N 33°45' W 118°17'0 0.0
2018-Dec-07 16:59N 33°45' W 118°17'0 0.0
2018-Dec-07 16:29N 33°45' W 118°17'0 0.0
2018-Dec-07 15:59N 33°45' W 118°17'0 0.0
2018-Dec-07 15:29N 33°45' W 118°17'0 0.0
2018-Dec-07 14:58N 33°45' W 118°17'0 0.0
2018-Dec-07 14:28N 33°45' W 118°17'0 0.0
2018-Dec-07 13:59N 33°45' W 118°17'0 0.0
2018-Dec-07 13:29N 33°45' W 118°17'0 0.0
2018-Dec-07 12:58N 33°45' W 118°17'0 0.1
2018-Dec-07 12:29N 33°45' W 118°17'0 0.1
2018-Dec-07 11:59N 33°45' W 118°17'0 0.0
2018-Dec-07 11:29N 33°45' W 118°17'510.0
2018-Dec-07 11:00N 33°42' W 118°12'5288.8 1019.3 14.010.216.0
2018-Dec-07 10:59N 33°45' W 118°17'0 0.0
2018-Dec-07 10:28N 33°45' W 118°17'0 0.0
2018-Dec-07 09:59N 33°45' W 118°17'0 0.0
2018-Dec-07 09:28N 33°45' W 118°17'0 0.0
2018-Dec-07 08:59N 33°45' W 118°17'0 0.0
2018-Dec-07 08:26N 33°45' W 118°17'0 0.0
2018-Dec-07 07:58N 33°45' W 118°17'0 0.0
2018-Dec-07 07:29N 33°45' W 118°17'0 0.0
2018-Dec-07 06:59N 33°45' W 118°17'0 0.0
2018-Dec-07 06:29N 33°45' W 118°17'0 0.0
2018-Dec-07 05:58N 33°45' W 118°17'0 0.0
2018-Dec-07 05:29N 33°45' W 118°17'0 0.0
2018-Dec-07 04:59N 33°45' W 118°17'0 0.0
2018-Dec-07 04:29N 33°45' W 118°17'0 0.0
2018-Dec-07 03:53N 33°45' W 118°17'5 5.4
2018-Dec-07 03:00N 33°42' W 118°12'5288.8 1013.0 13.0 16.0
2018-Dec-07 02:59N 33°45' W 118°17'0 0.0
2018-Dec-07 02:28N 33°45' W 118°17'0 0.0
2018-Dec-07 01:59N 33°45' W 118°17'0 0.0
2018-Dec-07 01:29N 33°45' W 118°17'0 0.0
2018-Dec-07 00:59N 33°45' W 118°17'0 0.0
2018-Dec-07 00:28N 33°45' W 118°17'0 0.0
2018-Dec-06 23:59N 33°45' W 118°17'0 0.0
2018-Dec-06 23:29N 33°45' W 118°17'0 0.0
2018-Dec-06 22:58N 33°45' W 118°17'0 0.0
2018-Dec-06 22:29N 33°45' W 118°17'0 0.0
2018-Dec-06 21:59N 33°45' W 118°17'0 0.0
2018-Dec-06 21:29N 33°45' W 118°17'0 0.0
2018-Dec-06 20:59N 33°45' W 118°17'0 0.0
2018-Dec-06 20:29N 33°45' W 118°17'0 0.0
2018-Dec-06 19:59N 33°45' W 118°17'0 0.0
2018-Dec-06 19:29N 33°45' W 118°17'1 1.5
2018-Dec-06 19:00N 33°44' W 118°17'4 7.8
2018-Dec-06 18:30N 33°41' W 118°14'510.0
2018-Dec-06 18:00N 33°37' W 118°10'612.1
2018-Dec-06 17:30N 33°31' W 118°08'612.3
2018-Dec-06 17:00N 33°25' W 118°05'612.3
2018-Dec-06 16:31N 33°20' W 118°03'713.4
2018-Dec-06 16:00N 33°13' W 118°00'1164.2
2018-Dec-06 16:00N 33°12' W 118°00'817.3 160 / 201011.0 5.4 15.0 17.0
2018-Dec-06 15:30N 33°04' W 117°57'1019.5
2018-Dec-06 15:00N 32°55' W 117°53'1019.1
2018-Dec-06 14:30N 32°46' W 117°50'1019.4
2018-Dec-06 14:01N 32°36' W 117°46'4220.0
2018-Dec-06 14:00N 32°36' W 117°42'918.4 160 / 291010.0 5.4 15.0 17.0
2018-Dec-06 13:30N 32°27' W 117°43'1019.5
2018-Dec-06 13:00N 32°18' W 117°39'1019.5
2018-Dec-06 12:30N 32°08' W 117°36'1019.1
2018-Dec-06 12:00N 32°00' W 117°30'4522.4 120 / 261015.3 15.015.018.0
2018-Dec-06 10:00N 31°18' W 117°12'12019.9 130 / 251016.3 17.015.318.0
2018-Dec-06 04:00N 29°24' W 116°30'3913.1 180 / 91019.210.8 21.0 21.0
2018-Dec-06 01:00N 28°48' W 116°12'7324.4 210 / 151014.010.8 19.0 19.0
2018-Dec-05 22:00N 27°42' W 115°36'3215.9 190 / 41018.310.8 19.013.821.0
2018-Dec-05 20:00N 27°12' W 115°24'9724.1 1019.210.8 20.0 19.0
2018-Dec-05 16:00N 26°00' W 114°12'8521.3 070 / 51016.010.8 21.0 21.0
2018-Dec-05 12:00N 24°54' W 113°12'4120.3 190 / 101019.310.8 22.017.224.0
2018-Dec-05 10:00N 24°24' W 112°42'9323.3 130 / 51019.310.8 21.017.825.0
2018-Dec-05 06:00N 23°24' W 111°24'7318.2 010 / 151019.210.8 23.0 26.0
2018-Dec-05 02:00N 22°54' W 110°12'18 5.9 080 / 101014.010.8 27.0 27.0
2018-Dec-04 23:00N 22°48' W 109°54'0 0.0 230 / 61018.310.8 29.019.926.0
2018-Dec-04 17:00N 22°48' W 109°54'54 8.9 130 / 41020.210.8 26.0 26.0
2018-Dec-04 11:00N 22°18' W 109°06'4924.6 360 / 151018.310.8 23.018.327.0
2018-Dec-04 09:00N 21°48' W 108°24'3812.7 010 / 201018.310.8 23.019.927.0
2018-Dec-04 06:00N 21°30' W 107°48'5417.9 010 / 181018.210.8 25.0 27.0
2018-Dec-04 03:00N 20°48' W 107°12'4916.4 030 / 221017.2 26.0 27.0
2018-Dec-04 00:00N 20°12' W 106°36'5819.2 020 / 251011.010.8 27.0 27.0
2018-Dec-03 21:00N 19°36' W 105°48'5016.6 010 / 251016.310.8 26.021.529.0
2018-Dec-03 18:00N 19°06' W 105°06'8320.8 060 / 41017.210.8 29.0 29.0
2018-Dec-03 14:00N 18°18' W 103°54'4213.9 050 / 151012.010.8 27.0 27.0
2018-Dec-03 11:00N 17°54' W 103°18'3131.0 020 / 71015.310.8 26.023.129.0
2018-Dec-03 10:00N 17°42' W 102°48'8016.0 040 / 101015.310.8 27.022.629.0
2018-Dec-03 05:00N 17°12' W 101°30'2612.9 1016.210.8 28.0 30.0
2018-Dec-03 03:00N 17°00' W 101°06'7010.0 1016.210.8 29.0 30.0
2018-Dec-02 20:00N 16°48' W 099°54'   210 / 81014.310.8 31.023.929.0
Track history (hours):
 
Tides and Currents Weather Stations Pressure Air Temp Water Temp Dewpoint Dewpoint Depression Visibility Wind Speed Wind Dir Waves Ship Positions

Crystal Serenity

Operator: Crystal Cruises

Last reported at 2018-Dec-12 12:23 UTC. Time now 2018-Dec-12 14:18 UTC.
Position N 32°06' W 117°17'.

Length 250 m; draft 7.5 m.

Type: Passenger vessel. MMSI: 311536000.

Date/timePositionNaut miles runAvg speedWind from/ knotsBaromVisibWave heightAir tempDewpointWater temp
2018-Dec-12 12:23N 32°06' W 117°17'614.8
2018-Dec-12 12:00N 32°10' W 117°21'113240.7
2018-Dec-12 12:00N 32°18' W 117°30'2 3.9 350 / 91023.310.8 16.014.218.0
2018-Dec-12 11:25N 32°16' W 117°28'614.6
2018-Dec-12 11:00N 32°21' W 117°33'714.6
2018-Dec-12 10:31N 32°26' W 117°39'714.6
2018-Dec-12 10:00N 32°31' W 117°45'714.6
2018-Dec-12 09:31N 32°36' W 117°51'714.6
2018-Dec-12 09:00N 32°41' W 117°58'714.9
2018-Dec-12 08:30N 32°46' W 118°04'714.9
2018-Dec-12 08:00N 32°52' W 118°10'816.8
2018-Dec-12 07:30N 32°57' W 118°18'918.5
2018-Dec-12 07:00N 33°04' W 118°25'918.0
2018-Dec-12 06:31N 33°11' W 118°33'918.3
2018-Dec-12 06:00N 33°17' W 118°40'918.3
2018-Dec-12 05:31N 33°25' W 118°45'918.7
2018-Dec-12 05:00N 33°33' W 118°51'918.3
2018-Dec-12 04:31N 33°41' W 118°57'918.2
2018-Dec-12 04:00N 33°49' W 119°03'3175.4
2018-Dec-12 04:00N 33°48' W 119°06'919.1 350 / 121021.210.8 17.0 17.0
2018-Dec-12 03:30N 33°57' W 119°09'918.3
2018-Dec-12 03:00N 34°03' W 119°17'918.4
2018-Dec-12 02:30N 34°05' W 119°28'918.8
2018-Dec-12 02:01N 34°08' W 119°39'917.8
2018-Dec-12 01:31N 34°17' W 119°40'713.9
2018-Dec-12 01:00N 34°24' W 119°40'0 0.2
2018-Dec-12 00:28N 34°24' W 119°40'0 0.0
2018-Dec-11 23:58N 34°24' W 119°40'0 0.0
2018-Dec-11 23:28N 34°24' W 119°40'0 0.0
2018-Dec-11 22:58N 34°24' W 119°40'0 0.0
2018-Dec-11 22:28N 34°24' W 119°40'0 0.0
2018-Dec-11 21:52N 34°24' W 119°40'0 0.0
2018-Dec-11 20:40N 34°24' W 119°40'0 0.2
2018-Dec-11 20:25N 34°24' W 119°40'0 0.1
2018-Dec-11 19:58N 34°24' W 119°40'0 0.1
2018-Dec-11 19:13N 34°24' W 119°40'0 0.0
2018-Dec-11 18:31N 34°24' W 119°40'0 0.0
2018-Dec-11 18:07N 34°24' W 119°40'0 0.0
2018-Dec-11 17:43N 34°24' W 119°40'0 0.0
2018-Dec-11 16:28N 34°24' W 119°40'0 0.1
2018-Dec-11 15:49N 34°24' W 119°40'0 0.1
2018-Dec-11 15:10N 34°24' W 119°40'1 4.0
2018-Dec-11 14:50N 34°22' W 119°40'5 9.7
2018-Dec-11 14:19N 34°18' W 119°44'410.7
2018-Dec-11 13:59N 34°15' W 119°46'5 9.8
2018-Dec-11 13:30N 34°11' W 119°49'510.5
2018-Dec-11 12:58N 34°12' W 119°56'5 9.8
2018-Dec-11 12:30N 34°13' W 120°01'4 7.6
2018-Dec-11 12:00N 34°12' W 120°06'2737.8 350 / 181021.310.8 15.011.316.0
2018-Dec-11 11:59N 34°14' W 120°07'5 9.8
2018-Dec-11 11:30N 34°15' W 120°13'510.2
2018-Dec-11 11:00N 34°17' W 120°19'510.0
2018-Dec-11 10:30N 34°18' W 120°24'5 9.8
2018-Dec-11 10:00N 34°19' W 120°30'5 9.7
2018-Dec-11 09:29N 34°20' W 120°36'510.0
2018-Dec-11 09:00N 34°22' W 120°42'5 9.8
2018-Dec-11 08:30N 34°23' W 120°47'5 9.6
2018-Dec-11 08:00N 34°24' W 120°53'5 9.4
2018-Dec-11 07:30N 34°28' W 120°56'5 9.8
2018-Dec-11 07:00N 34°32' W 120°59'4461.2
2018-Dec-11 07:00N 34°36' W 121°00'2 4.2 360 / 141024.3 14.0 16.0
2018-Dec-11 06:30N 34°37' W 121°02'5 9.5
2018-Dec-11 06:01N 34°41' W 121°05'5 9.4
2018-Dec-11 05:31N 34°45' W 121°08'5 9.4
2018-Dec-11 05:00N 34°49' W 121°12'5 9.4
2018-Dec-11 04:30N 34°52' W 121°15'5 9.2
2018-Dec-11 04:00N 34°56' W 121°18'5493.6
2018-Dec-11 04:00N 34°54' W 121°12'1020.0 360 / 131024.310.8 14.0 16.0
2018-Dec-11 03:30N 35°00' W 121°21'5 9.5
2018-Dec-11 03:00N 35°04' W 121°24'5 9.3
2018-Dec-11 02:30N 35°08' W 121°27'5 9.3
2018-Dec-11 02:00N 35°12' W 121°30'5 9.1
2018-Dec-11 01:30N 35°16' W 121°33'5 9.1
2018-Dec-11 01:00N 35°20' W 121°36'5 9.1
2018-Dec-11 00:30N 35°23' W 121°40'22 8.8
2018-Dec-10 22:00N 35°42' W 121°54'13 6.5 320 / 121024.310.8 16.012.415.0
2018-Dec-10 20:00N 35°54' W 122°00'59 9.9 350 / 181025.310.8 15.0 16.0
2018-Dec-10 14:00N 36°48' W 122°30'751.6 340 / 151023.010.8 14.0 16.0
2018-Dec-10 13:51N 36°53' W 122°36'3 9.6
2018-Dec-10 13:30N 36°57' W 122°37'5 9.6
2018-Dec-10 13:00N 37°01' W 122°39'5 9.5
2018-Dec-10 12:30N 37°06' W 122°41'5 9.6
2018-Dec-10 12:00N 37°10' W 122°43'4306.3
2018-Dec-10 12:00N 37°06' W 122°42'918.2 340 / 111029.310.8 14.012.215.0
2018-Dec-10 11:30N 37°15' W 122°43'5 9.5
2018-Dec-10 11:00N 37°20' W 122°43'5 9.4
2018-Dec-10 10:30N 37°24' W 122°44'5 9.6
2018-Dec-10 10:00N 37°29' W 122°43'5 9.5
2018-Dec-10 09:30N 37°34' W 122°44'5 9.4
2018-Dec-10 09:00N 37°38' W 122°43'4 9.0
2018-Dec-10 08:30N 37°43' W 122°42'510.2
2018-Dec-10 08:00N 37°46' W 122°37'715.0
2018-Dec-10 07:31N 37°49' W 122°28'3 6.6
2018-Dec-10 06:59N 37°48' W 122°24'0 0.0
2018-Dec-10 06:29N 37°48' W 122°24'0 0.6
2018-Dec-10 06:00N 37°48' W 122°24'0124.8 1026.0 9.0 16.0
2018-Dec-10 05:59N 37°48' W 122°24'0 0.0
2018-Dec-10 05:29N 37°48' W 122°24'0 0.0
2018-Dec-10 04:59N 37°48' W 122°24'0 0.0
2018-Dec-10 04:29N 37°48' W 122°24'0 0.0
2018-Dec-10 03:59N 37°48' W 122°24'0 0.0
2018-Dec-10 03:29N 37°48' W 122°24'0 0.0
2018-Dec-10 02:29N 37°48' W 122°24'0 0.0
2018-Dec-10 01:59N 37°48' W 122°24'0 0.0
2018-Dec-10 01:29N 37°48' W 122°24'0 0.0
2018-Dec-10 00:59N 37°48' W 122°24'0 0.0
2018-Dec-10 00:29N 37°48' W 122°24'0 0.0
2018-Dec-09 23:59N 37°48' W 122°24'0 0.0
2018-Dec-09 23:29N 37°48' W 122°24'0 0.0
2018-Dec-09 22:59N 37°48' W 122°24'0 0.0
2018-Dec-09 22:29N 37°48' W 122°24'0 0.0
2018-Dec-09 21:59N 37°48' W 122°24'0 0.0
2018-Dec-09 21:29N 37°48' W 122°24'0 0.6
2018-Dec-09 21:00N 37°48' W 122°24'0160.5 1027.0 10.0 16.0
2018-Dec-09 20:59N 37°48' W 122°24'0 0.0
2018-Dec-09 20:29N 37°48' W 122°24'0 0.0
2018-Dec-09 19:59N 37°48' W 122°24'0 0.0
2018-Dec-09 19:29N 37°48' W 122°24'0 0.0
2018-Dec-09 18:59N 37°48' W 122°24'0 0.0
2018-Dec-09 18:29N 37°48' W 122°24'0 0.0
2018-Dec-09 17:59N 37°48' W 122°24'0 0.0
2018-Dec-09 17:29N 37°48' W 122°24'0 0.0
2018-Dec-09 16:59N 37°48' W 122°24'0 0.0
2018-Dec-09 16:29N 37°48' W 122°24'0 0.0
2018-Dec-09 15:59N 37°48' W 122°24'0 0.0
2018-Dec-09 15:29N 37°48' W 122°24'0 0.0
2018-Dec-09 14:59N 37°48' W 122°24'0 0.0
2018-Dec-09 14:29N 37°48' W 122°24'0 0.0
2018-Dec-09 13:59N 37°48' W 122°24'0 0.0
2018-Dec-09 13:29N 37°48' W 122°24'0 0.0
2018-Dec-09 12:59N 37°48' W 122°24'0 0.0
2018-Dec-09 12:29N 37°48' W 122°24'0 0.0
2018-Dec-09 11:59N 37°48' W 122°24'0 0.0
2018-Dec-09 11:29N 37°48' W 122°24'0 0.0
2018-Dec-09 10:59N 37°48' W 122°24'0 0.0
2018-Dec-09 10:29N 37°48' W 122°24'0 0.0
2018-Dec-09 09:59N 37°48' W 122°24'0 0.0
2018-Dec-09 09:29N 37°48' W 122°24'0 0.0
2018-Dec-09 08:59N 37°48' W 122°24'0 0.0
2018-Dec-09 08:29N 37°48' W 122°24'0 0.0
2018-Dec-09 07:59N 37°48' W 122°24'0 0.0
2018-Dec-09 07:29N 37°48' W 122°24'0 0.6
2018-Dec-09 07:00N 37°48' W 122°24'0160.5 1025.0 12.0 16.0
2018-Dec-09 06:59N 37°48' W 122°24'0 0.0
2018-Dec-09 06:29N 37°48' W 122°24'0 0.0
2018-Dec-09 05:59N 37°48' W 122°24'0 0.0
2018-Dec-09 05:29N 37°48' W 122°24'0 0.0
2018-Dec-09 04:59N 37°48' W 122°24'0 0.0
2018-Dec-09 04:29N 37°48' W 122°24'0 0.6
2018-Dec-09 04:00N 37°48' W 122°24'0122.4 1025.0 14.0 16.0
2018-Dec-09 03:59N 37°48' W 122°24'0 0.0
2018-Dec-09 03:29N 37°48' W 122°24'0 0.0
2018-Dec-09 02:59N 37°48' W 122°24'0 0.0
2018-Dec-09 02:29N 37°48' W 122°24'0 0.0
2018-Dec-09 01:59N 37°48' W 122°24'0 0.0
2018-Dec-09 01:29N 37°48' W 122°24'0 0.0
2018-Dec-09 00:59N 37°48' W 122°24'0 0.0
2018-Dec-09 00:29N 37°48' W 122°24'0 0.0
2018-Dec-08 23:59N 37°48' W 122°24'0 0.2
2018-Dec-08 23:31N 37°48' W 122°24'3 5.9
2018-Dec-08 23:00N 37°49' W 122°28'612.2
2018-Dec-08 22:31N 37°47' W 122°35'612.5
2018-Dec-08 22:00N 37°44' W 122°42'713.8
2018-Dec-08 21:30N 37°38' W 122°40'714.2
2018-Dec-08 21:00N 37°30' W 122°39'917.8
2018-Dec-08 20:30N 37°21' W 122°39'918.9
2018-Dec-08 20:00N 37°12' W 122°39'918.9
2018-Dec-08 19:30N 37°03' W 122°36'2344.7
2018-Dec-08 19:00N 36°42' W 122°24'1347921.8 1030.310.8 13.0 16.0
2018-Dec-08 18:59N 36°54' W 122°31'1018.8
2018-Dec-08 18:27N 36°45' W 122°27'4920.1
2018-Dec-08 16:00N 36°00' W 122°00'4120.5 310 / 271014.010.8 15.0 16.0
2018-Dec-08 14:00N 35°24' W 121°36'811.6 300 / 301014.0 5.4 14.0 16.0
2018-Dec-08 13:18N 35°18' W 121°29'619.0
2018-Dec-08 13:00N 35°13' W 121°26'918.5
2018-Dec-08 12:30N 35°05' W 121°20'917.9
2018-Dec-08 12:01N 34°58' W 121°15'4252.7
2018-Dec-08 12:00N 34°54' W 121°12'5 9.6 350 / 201028.310.8 15.0 9.116.0
2018-Dec-08 11:30N 34°50' W 121°09'918.1
2018-Dec-08 11:01N 34°43' W 121°03'918.6
2018-Dec-08 10:30N 34°34' W 120°57'918.7
2018-Dec-08 10:00N 34°26' W 120°51'918.3
2018-Dec-08 09:30N 34°24' W 120°41'919.0
2018-Dec-08 09:00N 34°21' W 120°30'1019.2
2018-Dec-08 08:30N 34°19' W 120°18'1018.8
2018-Dec-08 07:59N 34°16' W 120°07'918.7
2018-Dec-08 07:30N 34°14' W 119°57'918.6
2018-Dec-08 07:00N 34°12' W 119°46'2118.6
2018-Dec-08 07:00N 34°12' W 119°48'1123.6 1027.310.8 14.0 16.0
2018-Dec-08 06:30N 34°09' W 119°35'1019.2
2018-Dec-08 06:00N 34°06' W 119°23'1018.8
2018-Dec-08 05:29N 34°03' W 119°12'918.3
2018-Dec-08 05:00N 33°58' W 119°03'1018.6
2018-Dec-08 04:30N 33°54' W 118°53'918.5
2018-Dec-08 04:00N 33°49' W 118°44'4281.1
2018-Dec-08 04:00N 33°48' W 118°48'1019.9 340 / 121025.310.8 17.0 17.0
2018-Dec-08 03:30N 33°46' W 118°37'612.8
2018-Dec-08 03:00N 33°43' W 118°30'612.5
2018-Dec-08 02:30N 33°40' W 118°23'510.7
2018-Dec-08 02:00N 33°39' W 118°17'4 8.4
2018-Dec-08 01:31N 33°43' W 118°16'2 3.1
2018-Dec-08 00:59N 33°45' W 118°17'0 0.0
2018-Dec-08 00:29N 33°45' W 118°17'0 0.0
2018-Dec-07 23:53N 33°45' W 118°17'0 0.0
2018-Dec-07 23:28N 33°45' W 118°17'0 0.0
2018-Dec-07 22:59N 33°45' W 118°17'0 0.0
2018-Dec-07 22:23N 33°45' W 118°17'0 0.0
2018-Dec-07 21:59N 33°45' W 118°17'0 0.0
2018-Dec-07 21:29N 33°45' W 118°17'0 0.0
2018-Dec-07 20:59N 33°45' W 118°17'0 0.0
2018-Dec-07 20:29N 33°45' W 118°17'510.0
2018-Dec-07 20:00N 33°42' W 118°12'5288.8 010 / 61022.2 21.0 21.0
2018-Dec-07 19:59N 33°45' W 118°17'0 0.0
2018-Dec-07 19:29N 33°45' W 118°17'0 0.0
2018-Dec-07 18:59N 33°45' W 118°17'0 0.0
2018-Dec-07 18:29N 33°45' W 118°17'0 0.0
2018-Dec-07 17:59N 33°45' W 118°17'0 0.0
2018-Dec-07 17:29N 33°45' W 118°17'0 0.0
2018-Dec-07 16:59N 33°45' W 118°17'0 0.0
2018-Dec-07 16:29N 33°45' W 118°17'0 0.0
2018-Dec-07 15:59N 33°45' W 118°17'0 0.0
2018-Dec-07 15:29N 33°45' W 118°17'0 0.0
2018-Dec-07 14:58N 33°45' W 118°17'0 0.0
2018-Dec-07 14:28N 33°45' W 118°17'0 0.0
2018-Dec-07 13:59N 33°45' W 118°17'0 0.0
2018-Dec-07 13:29N 33°45' W 118°17'0 0.0
2018-Dec-07 12:58N 33°45' W 118°17'0 0.1
2018-Dec-07 12:29N 33°45' W 118°17'0 0.1
2018-Dec-07 11:59N 33°45' W 118°17'0 0.0
2018-Dec-07 11:29N 33°45' W 118°17'510.0
2018-Dec-07 11:00N 33°42' W 118°12'5288.8 1019.3 14.010.216.0
2018-Dec-07 10:59N 33°45' W 118°17'0 0.0
2018-Dec-07 10:28N 33°45' W 118°17'0 0.0
2018-Dec-07 09:59N 33°45' W 118°17'0 0.0
2018-Dec-07 09:28N 33°45' W 118°17'0 0.0
2018-Dec-07 08:59N 33°45' W 118°17'0 0.0
2018-Dec-07 08:26N 33°45' W 118°17'0 0.0
2018-Dec-07 07:58N 33°45' W 118°17'0 0.0
2018-Dec-07 07:29N 33°45' W 118°17'0 0.0
2018-Dec-07 06:59N 33°45' W 118°17'0 0.0
2018-Dec-07 06:29N 33°45' W 118°17'0 0.0
2018-Dec-07 05:58N 33°45' W 118°17'0 0.0
2018-Dec-07 05:29N 33°45' W 118°17'0 0.0
2018-Dec-07 04:59N 33°45' W 118°17'0 0.0
2018-Dec-07 04:29N 33°45' W 118°17'0 0.0
2018-Dec-07 03:53N 33°45' W 118°17'5 5.4
2018-Dec-07 03:00N 33°42' W 118°12'5288.8 1013.0 13.0 16.0
2018-Dec-07 02:59N 33°45' W 118°17'0 0.0
2018-Dec-07 02:28N 33°45' W 118°17'0 0.0
2018-Dec-07 01:59N 33°45' W 118°17'0 0.0
2018-Dec-07 01:29N 33°45' W 118°17'0 0.0
2018-Dec-07 00:59N 33°45' W 118°17'0 0.0
2018-Dec-07 00:28N 33°45' W 118°17'0 0.0
2018-Dec-06 23:59N 33°45' W 118°17'0 0.0
2018-Dec-06 23:29N 33°45' W 118°17'0 0.0
2018-Dec-06 22:58N 33°45' W 118°17'0 0.0
2018-Dec-06 22:29N 33°45' W 118°17'0 0.0
2018-Dec-06 21:59N 33°45' W 118°17'0 0.0
2018-Dec-06 21:29N 33°45' W 118°17'0 0.0
2018-Dec-06 20:59N 33°45' W 118°17'0 0.0
2018-Dec-06 20:29N 33°45' W 118°17'0 0.0
2018-Dec-06 19:59N 33°45' W 118°17'0 0.0
2018-Dec-06 19:29N 33°45' W 118°17'1 1.5
2018-Dec-06 19:00N 33°44' W 118°17'4 7.8
2018-Dec-06 18:30N 33°41' W 118°14'510.0
2018-Dec-06 18:00N 33°37' W 118°10'612.1
2018-Dec-06 17:30N 33°31' W 118°08'612.3
2018-Dec-06 17:00N 33°25' W 118°05'612.3
2018-Dec-06 16:31N 33°20' W 118°03'713.4
2018-Dec-06 16:00N 33°13' W 118°00'1164.2
2018-Dec-06 16:00N 33°12' W 118°00'817.3 160 / 201011.0 5.4 15.0 17.0
2018-Dec-06 15:30N 33°04' W 117°57'1019.5
2018-Dec-06 15:00N 32°55' W 117°53'1019.1
2018-Dec-06 14:30N 32°46' W 117°50'1019.4
2018-Dec-06 14:01N 32°36' W 117°46'4220.0
2018-Dec-06 14:00N 32°36' W 117°42'918.4 160 / 291010.0 5.4 15.0 17.0
2018-Dec-06 13:30N 32°27' W 117°43'1019.5
2018-Dec-06 13:00N 32°18' W 117°39'1019.5
2018-Dec-06 12:30N 32°08' W 117°36'1019.1
2018-Dec-06 12:00N 32°00' W 117°30'4522.4 120 / 261015.3 15.015.018.0
2018-Dec-06 10:00N 31°18' W 117°12'12019.9 130 / 251016.3 17.015.318.0
2018-Dec-06 04:00N 29°24' W 116°30'3913.1 180 / 91019.210.8 21.0 21.0
2018-Dec-06 01:00N 28°48' W 116°12'7324.4 210 / 151014.010.8 19.0 19.0
2018-Dec-05 22:00N 27°42' W 115°36'3215.9 190 / 41018.310.8 19.013.821.0
2018-Dec-05 20:00N 27°12' W 115°24'9724.1 1019.210.8 20.0 19.0
2018-Dec-05 16:00N 26°00' W 114°12'8521.3 070 / 51016.010.8 21.0 21.0
2018-Dec-05 12:00N 24°54' W 113°12'4120.3 190 / 101019.310.8 22.017.224.0
2018-Dec-05 10:00N 24°24' W 112°42'9323.3 130 / 51019.310.8 21.017.825.0
2018-Dec-05 06:00N 23°24' W 111°24'7318.2 010 / 151019.210.8 23.0 26.0
2018-Dec-05 02:00N 22°54' W 110°12'18 5.9 080 / 101014.010.8 27.0 27.0
2018-Dec-04 23:00N 22°48' W 109°54'0 0.0 230 / 61018.310.8 29.019.926.0
2018-Dec-04 17:00N 22°48' W 109°54'54 8.9 130 / 41020.210.8 26.0 26.0
2018-Dec-04 11:00N 22°18' W 109°06'4924.6 360 / 151018.310.8 23.018.327.0
2018-Dec-04 09:00N 21°48' W 108°24'3812.7 010 / 201018.310.8 23.019.927.0
2018-Dec-04 06:00N 21°30' W 107°48'5417.9 010 / 181018.210.8 25.0 27.0
2018-Dec-04 03:00N 20°48' W 107°12'4916.4 030 / 221017.2 26.0 27.0
2018-Dec-04 00:00N 20°12' W 106°36'5819.2 020 / 251011.010.8 27.0 27.0
2018-Dec-03 21:00N 19°36' W 105°48'5016.6 010 / 251016.310.8 26.021.529.0
2018-Dec-03 18:00N 19°06' W 105°06'8320.8 060 / 41017.210.8 29.0 29.0
2018-Dec-03 14:00N 18°18' W 103°54'4213.9 050 / 151012.010.8 27.0 27.0
2018-Dec-03 11:00N 17°54' W 103°18'3131.0 020 / 71015.310.8 26.023.129.0
2018-Dec-03 10:00N 17°42' W 102°48'8016.0 040 / 101015.310.8 27.022.629.0
2018-Dec-03 05:00N 17°12' W 101°30'2612.9 1016.210.8 28.0 30.0
2018-Dec-03 03:00N 17°00' W 101°06'7010.0 1016.210.8 29.0 30.0
2018-Dec-02 20:00N 16°48' W 099°54'   210 / 81014.310.8 31.023.929.0

Dump ship's entire track history